PWSweather.com
Personal Weather Stations
Station Observations
J24K28P63
Vysocina, PocatkyCZ 39464

VysocinaPocatkyCZ 39464

Lat: 49.2594238, Lon: 15.2331769

Elevation: 2011

Station Type: Vantage Pro2+

http://meteo-jirkalina.com

High Low Average
Temperature 88.7°F31.5°C 56.2°F13.4°C 76.3°F24.6°C
Dew Point 58.2°F14.6°C 36.3°F2.4°C 51.7°F10.9°C
Winds 4.1 mph 6.6 kmh Calm Calm 1.0 mph S1.6 kmh S
Wind Gusts 8.0 mph12.9 kmh -- 3.0 mph4.8 kmh
Humidity 89% 26% 46%
Pressure 30.12 in1020.0 mb 29.92 in1013.2 mb -
Precipitation 0.00 in0.0 mm - -
Hour Temp Dew Point Humidity Winds Wind Gusts Pressure Precip Precip Rate Daily Precip Total
12:00 AM 64.9°F18.3°C 56.4°F13.6°C 74% 4.1 mph NNE6.6 kmh NNE 7.0 mph11.3 kmh 30.01 in1016.3 mb - 0.00 in0.0 mm 0.00 in0.0 mm
12:30 AM 63.9°F17.7°C 56.5°F13.6°C 77% 1.1 mph NE1.8 kmh NE 1.0 mph1.6 kmh 30.01 in1016.3 mb - 0.00 in0.0 mm 0.00 in0.0 mm
01:00 AM 62.9°F17.2°C 56.3°F13.5°C 79% 2.2 mph NE3.5 kmh NE 6.0 mph9.7 kmh 30.01 in1016.3 mb - 0.00 in0.0 mm 0.00 in0.0 mm
01:30 AM 61.8°F16.6°C 55.9°F13.3°C 81% 1.6 mph NNE2.6 kmh NNE 2.0 mph3.2 kmh 30.01 in1016.3 mb - 0.00 in0.0 mm 0.00 in0.0 mm
02:00 AM 61.6°F16.4°C 55.4°F13.0°C 80% 1.8 mph NE2.9 kmh NE 5.0 mph8.0 kmh 30.01 in1016.3 mb - 0.00 in0.0 mm 0.00 in0.0 mm
02:30 AM 61.3°F16.3°C 55.4°F13.0°C 81% 1.8 mph NE2.9 kmh NE 1.0 mph1.6 kmh 30.01 in1016.3 mb - 0.00 in0.0 mm 0.00 in0.0 mm
03:00 AM 60.7°F15.9°C 54.8°F12.7°C 81% Calm Calm -- 30.01 in1016.3 mb - 0.00 in0.0 mm 0.00 in0.0 mm
03:30 AM 59.9°F15.5°C 54.4°F12.4°C 82% Calm Calm -- 30.00 in1015.9 mb - 0.00 in0.0 mm 0.00 in0.0 mm
04:00 AM 59.5°F15.3°C 54.7°F12.6°C 84% Calm Calm -- 30.00 in1015.9 mb - 0.00 in0.0 mm 0.00 in0.0 mm
04:30 AM 58.9°F14.9°C 54.4°F12.4°C 85% Calm Calm -- 30.01 in1016.3 mb - 0.00 in0.0 mm 0.00 in0.0 mm
05:00 AM 56.2°F13.4°C 53.0°F11.7°C 89% Calm Calm -- 30.09 in1019.0 mb - 0.00 in0.0 mm 0.00 in0.0 mm
05:10 AM 56.4°F13.6°C 52.9°F11.6°C 88% Calm Calm -- 30.09 in1019.0 mb - 0.00 in0.0 mm 0.00 in0.0 mm
05:20 AM 56.9°F13.8°C 53.7°F12.1°C 89% Calm Calm -- 30.10 in1019.3 mb - 0.00 in0.0 mm 0.00 in0.0 mm
05:30 AM 57.3°F14.1°C 54.1°F12.3°C 89% Calm Calm -- 30.10 in1019.3 mb - 0.00 in0.0 mm 0.00 in0.0 mm
05:40 AM 57.8°F14.3°C 54.3°F12.4°C 88% Calm Calm -- 30.10 in1019.3 mb - 0.00 in0.0 mm 0.00 in0.0 mm
05:50 AM 60.0°F15.6°C 55.1°F12.8°C 84% Calm Calm 1.0 mph1.6 kmh 30.10 in1019.3 mb - 0.00 in0.0 mm 0.00 in0.0 mm
06:00 AM 62.8°F17.1°C 56.1°F13.4°C 79% Calm Calm 2.0 mph3.2 kmh 30.10 in1019.3 mb - 0.00 in0.0 mm 0.00 in0.0 mm
06:10 AM 64.5°F18.1°C 56.4°F13.6°C 75% 2.0 mph NW3.2 kmh NW 3.0 mph4.8 kmh 30.10 in1019.3 mb - 0.00 in0.0 mm 0.00 in0.0 mm
06:20 AM 65.3°F18.5°C 56.0°F13.3°C 72% 2.0 mph NW3.2 kmh NW 3.0 mph4.8 kmh 30.11 in1019.6 mb - 0.00 in0.0 mm 0.00 in0.0 mm
06:30 AM 66.8°F19.3°C 56.3°F13.5°C 69% 3.0 mph NW4.8 kmh NW 5.0 mph8.0 kmh 30.11 in1019.6 mb - 0.00 in0.0 mm 0.00 in0.0 mm
06:40 AM 67.6°F19.8°C 57.0°F13.9°C 69% 3.0 mph NW4.8 kmh NW 3.0 mph4.8 kmh 30.11 in1019.6 mb - 0.00 in0.0 mm 0.00 in0.0 mm
06:50 AM 67.9°F19.9°C 56.1°F13.4°C 66% 2.0 mph NW3.2 kmh NW 3.0 mph4.8 kmh 30.11 in1019.6 mb - 0.00 in0.0 mm 0.00 in0.0 mm
07:00 AM 68.4°F20.2°C 56.2°F13.4°C 65% 2.0 mph NW3.2 kmh NW 7.0 mph11.3 kmh 30.11 in1019.6 mb - 0.00 in0.0 mm 0.00 in0.0 mm
07:10 AM 69.2°F20.7°C 56.1°F13.4°C 63% 3.0 mph NW4.8 kmh NW 3.0 mph4.8 kmh 30.11 in1019.6 mb - 0.00 in0.0 mm 0.00 in0.0 mm
07:20 AM 70.8°F21.6°C 57.2°F14.0°C 62% 2.0 mph NW3.2 kmh NW 3.0 mph4.8 kmh 30.11 in1019.6 mb - 0.00 in0.0 mm 0.00 in0.0 mm
07:30 AM 70.7°F21.5°C 57.0°F13.9°C 62% 2.0 mph NW3.2 kmh NW 3.0 mph4.8 kmh 30.12 in1020.0 mb - 0.00 in0.0 mm 0.00 in0.0 mm
07:40 AM 72.3°F22.4°C 56.7°F13.7°C 58% 2.0 mph NW3.2 kmh NW 3.0 mph4.8 kmh 30.11 in1019.6 mb - 0.00 in0.0 mm 0.00 in0.0 mm
07:50 AM 72.3°F22.4°C 56.2°F13.4°C 57% 3.0 mph NW4.8 kmh NW 3.0 mph4.8 kmh 30.11 in1019.6 mb - 0.00 in0.0 mm 0.00 in0.0 mm
08:00 AM 73.0°F22.8°C 56.9°F13.8°C 57% 3.0 mph NW4.8 kmh NW 5.0 mph8.0 kmh 30.11 in1019.6 mb - 0.00 in0.0 mm 0.00 in0.0 mm
08:10 AM 75.0°F23.9°C 57.7°F14.3°C 55% 2.0 mph NW3.2 kmh NW 5.0 mph8.0 kmh 30.11 in1019.6 mb - 0.00 in0.0 mm 0.00 in0.0 mm
08:20 AM 76.1°F24.5°C 58.2°F14.6°C 54% 1.0 mph NW1.6 kmh NW 5.0 mph8.0 kmh 30.11 in1019.6 mb - 0.00 in0.0 mm 0.00 in0.0 mm
08:30 AM 75.8°F24.3°C 56.3°F13.5°C 51% 3.0 mph NW4.8 kmh NW 5.0 mph8.0 kmh 30.11 in1019.6 mb - 0.00 in0.0 mm 0.00 in0.0 mm
08:40 AM 77.1°F25.1°C 57.0°F13.9°C 50% 3.0 mph NW4.8 kmh NW 3.0 mph4.8 kmh 30.11 in1019.6 mb - 0.00 in0.0 mm 0.00 in0.0 mm
08:50 AM 78.2°F25.7°C 56.9°F13.8°C 48% Calm Calm 2.0 mph3.2 kmh 30.11 in1019.6 mb - 0.00 in0.0 mm 0.00 in0.0 mm
09:00 AM 78.9°F26.1°C 56.3°F13.5°C 46% 3.0 mph NW4.8 kmh NW 6.0 mph9.7 kmh 30.11 in1019.6 mb - 0.00 in0.0 mm 0.00 in0.0 mm
09:10 AM 78.2°F25.7°C 53.2°F11.8°C 42% 1.0 mph NW1.6 kmh NW 1.0 mph1.6 kmh 30.11 in1019.6 mb - 0.00 in0.0 mm 0.00 in0.0 mm
09:20 AM 78.6°F25.9°C 56.1°F13.4°C 46% 2.0 mph NW3.2 kmh NW 6.0 mph9.7 kmh 30.10 in1019.3 mb - 0.00 in0.0 mm 0.00 in0.0 mm
09:30 AM 79.8°F26.6°C 55.3°F12.9°C 43% 1.0 mph NW1.6 kmh NW 3.0 mph4.8 kmh 30.10 in1019.3 mb - 0.00 in0.0 mm 0.00 in0.0 mm
09:40 AM 80.0°F26.7°C 54.8°F12.7°C 42% 2.0 mph NW3.2 kmh NW 5.0 mph8.0 kmh 30.10 in1019.3 mb - 0.00 in0.0 mm 0.00 in0.0 mm
09:50 AM 81.4°F27.4°C 54.1°F12.3°C 39% 2.0 mph NE3.2 kmh NE 5.0 mph8.0 kmh 30.10 in1019.3 mb - 0.00 in0.0 mm 0.00 in0.0 mm
10:00 AM 80.8°F27.1°C 53.6°F12.0°C 39% Calm Calm 1.0 mph1.6 kmh 30.10 in1019.3 mb - 0.00 in0.0 mm 0.00 in0.0 mm
10:10 AM 80.6°F27.0°C 53.3°F11.8°C 39% 2.0 mph NW3.2 kmh NW 3.0 mph4.8 kmh 30.09 in1019.0 mb - 0.00 in0.0 mm 0.00 in0.0 mm
10:20 AM 79.8°F26.6°C 54.7°F12.6°C 42% 2.0 mph NE3.2 kmh NE 3.0 mph4.8 kmh 30.10 in1019.3 mb - 0.00 in0.0 mm 0.00 in0.0 mm
10:30 AM 79.5°F26.4°C 53.7°F12.1°C 41% 2.0 mph NW3.2 kmh NW 3.0 mph4.8 kmh 30.09 in1019.0 mb - 0.00 in0.0 mm 0.00 in0.0 mm
10:40 AM 80.3°F26.8°C 54.4°F12.4°C 41% 3.0 mph NW4.8 kmh NW 7.0 mph11.3 kmh 30.09 in1019.0 mb - 0.00 in0.0 mm 0.00 in0.0 mm
10:50 AM 80.5°F26.9°C 55.3°F12.9°C 42% 2.0 mph N3.2 kmh N 3.0 mph4.8 kmh 30.09 in1019.0 mb - 0.00 in0.0 mm 0.00 in0.0 mm
11:00 AM 78.1°F25.6°C 42.3°F5.7°C 28% 1.4 mph W2.3 kmh W 3.0 mph4.8 kmh 30.02 in1016.6 mb - 0.00 in0.0 mm 0.00 in0.0 mm
11:10 AM 82.2°F27.9°C 54.1°F12.3°C 38% 3.0 mph NE4.8 kmh NE 5.0 mph8.0 kmh 30.08 in1018.6 mb - 0.00 in0.0 mm 0.00 in0.0 mm
11:20 AM 81.2°F27.3°C 53.2°F11.8°C 38% 2.0 mph N3.2 kmh N 3.0 mph4.8 kmh 30.08 in1018.6 mb - 0.00 in0.0 mm 0.00 in0.0 mm
11:30 AM 82.5°F28.1°C 52.9°F11.6°C 36% 2.0 mph NE3.2 kmh NE 6.0 mph9.7 kmh 30.08 in1018.6 mb - 0.00 in0.0 mm 0.00 in0.0 mm
11:40 AM 82.8°F28.2°C 53.9°F12.2°C 37% 1.0 mph NE1.6 kmh NE 3.0 mph4.8 kmh 30.07 in1018.3 mb - 0.00 in0.0 mm 0.00 in0.0 mm
11:50 AM 84.3°F29.1°C 54.4°F12.4°C 36% 3.0 mph WNW4.8 kmh WNW 5.0 mph8.0 kmh 30.07 in1018.3 mb - 0.00 in0.0 mm 0.00 in0.0 mm
12:00 PM 83.7°F28.7°C 53.1°F11.7°C 35% 2.0 mph W3.2 kmh W 6.0 mph9.7 kmh 30.07 in1018.3 mb - 0.00 in0.0 mm 0.00 in0.0 mm
12:10 PM 83.6°F28.7°C 53.1°F11.7°C 35% 2.0 mph NW3.2 kmh NW 3.0 mph4.8 kmh 30.06 in1017.9 mb - 0.00 in0.0 mm 0.00 in0.0 mm
12:20 PM 83.7°F28.7°C 53.1°F11.7°C 35% 2.0 mph NNW3.2 kmh NNW 6.0 mph9.7 kmh 30.06 in1017.9 mb - 0.00 in0.0 mm 0.00 in0.0 mm
12:30 PM 84.3°F29.1°C 52.1°F11.2°C 33% 2.0 mph NW3.2 kmh NW 3.0 mph4.8 kmh 30.06 in1017.9 mb - 0.00 in0.0 mm 0.00 in0.0 mm
12:40 PM 84.4°F29.1°C 52.1°F11.2°C 33% Calm Calm 2.0 mph3.2 kmh 30.05 in1017.6 mb - 0.00 in0.0 mm 0.00 in0.0 mm
12:50 PM 84.1°F28.9°C 53.5°F11.9°C 35% 1.0 mph WNW1.6 kmh WNW 3.0 mph4.8 kmh 30.05 in1017.6 mb - 0.00 in0.0 mm 0.00 in0.0 mm
01:00 PM 83.9°F28.8°C 52.5°F11.4°C 34% 3.0 mph ENE4.8 kmh ENE 3.0 mph4.8 kmh 30.05 in1017.6 mb - 0.00 in0.0 mm 0.00 in0.0 mm
01:10 PM 84.6°F29.2°C 51.5°F10.8°C 32% 2.0 mph NE3.2 kmh NE 3.0 mph4.8 kmh 30.05 in1017.6 mb - 0.00 in0.0 mm 0.00 in0.0 mm
01:20 PM 85.6°F29.8°C 51.5°F10.8°C 31% 2.0 mph NNW3.2 kmh NNW 6.0 mph9.7 kmh 30.05 in1017.6 mb - 0.00 in0.0 mm 0.00 in0.0 mm
01:30 PM 84.8°F29.3°C 49.9°F9.9°C 30% 3.0 mph NNW4.8 kmh NNW 3.0 mph4.8 kmh 30.04 in1017.3 mb - 0.00 in0.0 mm 0.00 in0.0 mm
01:40 PM 85.7°F29.8°C 51.6°F10.9°C 31% 3.0 mph NE4.8 kmh NE 5.0 mph8.0 kmh 30.04 in1017.3 mb - 0.00 in0.0 mm 0.00 in0.0 mm
01:50 PM 86.0°F30.0°C 50.9°F10.5°C 30% 3.0 mph NW4.8 kmh NW 8.0 mph12.9 kmh 30.04 in1017.3 mb - 0.00 in0.0 mm 0.00 in0.0 mm
02:00 PM 86.6°F30.3°C 49.6°F9.8°C 28% 2.0 mph NW3.2 kmh NW 3.0 mph4.8 kmh 30.04 in1017.3 mb - 0.00 in0.0 mm 0.00 in0.0 mm
02:10 PM 86.9°F30.5°C 50.8°F10.4°C 29% 1.0 mph WSW1.6 kmh WSW 2.0 mph3.2 kmh 30.03 in1016.9 mb - 0.00 in0.0 mm 0.00 in0.0 mm
02:20 PM 85.9°F29.9°C 50.0°F10.0°C 29% 1.0 mph WSW1.6 kmh WSW 3.0 mph4.8 kmh 30.03 in1016.9 mb - 0.00 in0.0 mm 0.00 in0.0 mm
02:30 PM 85.8°F29.9°C 49.9°F9.9°C 29% Calm Calm 2.0 mph3.2 kmh 30.02 in1016.6 mb - 0.00 in0.0 mm 0.00 in0.0 mm
02:40 PM 86.8°F30.4°C 51.7°F10.9°C 30% 1.0 mph NE1.6 kmh NE 2.0 mph3.2 kmh 30.02 in1016.6 mb - 0.00 in0.0 mm 0.00 in0.0 mm
02:50 PM 85.6°F29.8°C 51.5°F10.8°C 31% 1.0 mph ENE1.6 kmh ENE 3.0 mph4.8 kmh 30.02 in1016.6 mb - 0.00 in0.0 mm 0.00 in0.0 mm
03:00 PM 85.6°F29.8°C 47.8°F8.8°C 27% 2.0 mph E3.2 kmh E 6.0 mph9.7 kmh 30.01 in1016.3 mb - 0.00 in0.0 mm 0.00 in0.0 mm
03:10 PM 86.6°F30.3°C 49.6°F9.8°C 28% 3.0 mph ENE4.8 kmh ENE 5.0 mph8.0 kmh 30.01 in1016.3 mb - 0.00 in0.0 mm 0.00 in0.0 mm
03:20 PM 86.6°F30.3°C 49.6°F9.8°C 28% 3.0 mph SE4.8 kmh SE 7.0 mph11.3 kmh 30.01 in1016.3 mb - 0.00 in0.0 mm 0.00 in0.0 mm
03:30 PM 86.6°F30.3°C 48.6°F9.2°C 27% 1.0 mph SE1.6 kmh SE 2.0 mph3.2 kmh 30.00 in1015.9 mb - 0.00 in0.0 mm 0.00 in0.0 mm
03:40 PM 86.1°F30.1°C 49.2°F9.6°C 28% 1.0 mph NE1.6 kmh NE 3.0 mph4.8 kmh 30.00 in1015.9 mb - 0.00 in0.0 mm 0.00 in0.0 mm
03:50 PM 86.6°F30.3°C 50.6°F10.3°C 29% 1.0 mph NE1.6 kmh NE 3.0 mph4.8 kmh 30.00 in1015.9 mb - 0.00 in0.0 mm 0.00 in0.0 mm
04:00 PM 86.9°F30.5°C 49.9°F9.9°C 28% 1.0 mph NE1.6 kmh NE 2.0 mph3.2 kmh 30.00 in1015.9 mb - 0.00 in0.0 mm 0.00 in0.0 mm
04:10 PM 87.7°F30.9°C 49.6°F9.8°C 27% 2.0 mph NW3.2 kmh NW 3.0 mph4.8 kmh 29.99 in1015.6 mb - 0.00 in0.0 mm 0.00 in0.0 mm
04:20 PM 88.7°F31.5°C 49.4°F9.7°C 26% Calm Calm 3.0 mph4.8 kmh 29.99 in1015.6 mb - 0.00 in0.0 mm 0.00 in0.0 mm
04:30 PM 87.1°F30.6°C 50.1°F10.1°C 28% 2.0 mph NE3.2 kmh NE 3.0 mph4.8 kmh 29.98 in1015.2 mb - 0.00 in0.0 mm 0.00 in0.0 mm
04:40 PM 86.6°F30.3°C 47.6°F8.7°C 26% 1.0 mph NE1.6 kmh NE 3.0 mph4.8 kmh 29.98 in1015.2 mb - 0.00 in0.0 mm 0.00 in0.0 mm
04:50 PM 86.9°F30.5°C 48.9°F9.4°C 27% 2.0 mph ENE3.2 kmh ENE 3.0 mph4.8 kmh 29.98 in1015.2 mb - 0.00 in0.0 mm 0.00 in0.0 mm
05:00 PM 86.3°F30.2°C 48.3°F9.1°C 27% 1.0 mph NE1.6 kmh NE 3.0 mph4.8 kmh 29.97 in1014.9 mb - 0.00 in0.0 mm 0.00 in0.0 mm
05:10 PM 86.1°F30.1°C 48.2°F9.0°C 27% 1.0 mph ENE1.6 kmh ENE 2.0 mph3.2 kmh 29.97 in1014.9 mb - 0.00 in0.0 mm 0.00 in0.0 mm
05:20 PM 86.3°F30.2°C 48.4°F9.1°C 27% Calm Calm -- 29.97 in1014.9 mb - 0.00 in0.0 mm 0.00 in0.0 mm
05:30 PM 85.6°F29.8°C 49.7°F9.8°C 29% 2.0 mph ENE3.2 kmh ENE 3.0 mph4.8 kmh 29.97 in1014.9 mb - 0.00 in0.0 mm 0.00 in0.0 mm
05:40 PM 85.2°F29.6°C 49.4°F9.7°C 29% Calm Calm -- 29.96 in1014.6 mb - 0.00 in0.0 mm 0.00 in0.0 mm
05:50 PM 85.1°F29.5°C 48.3°F9.1°C 28% Calm Calm -- 29.96 in1014.6 mb - 0.00 in0.0 mm 0.00 in0.0 mm
06:00 PM 84.4°F29.1°C 48.7°F9.3°C 29% Calm Calm -- 29.96 in1014.6 mb - 0.00 in0.0 mm 0.00 in0.0 mm
06:10 PM 83.6°F28.7°C 48.0°F8.9°C 29% 2.0 mph SE3.2 kmh SE 3.0 mph4.8 kmh 29.96 in1014.6 mb - 0.00 in0.0 mm 0.00 in0.0 mm
06:20 PM 83.4°F28.6°C 48.7°F9.3°C 30% 1.0 mph SE1.6 kmh SE 2.0 mph3.2 kmh 29.96 in1014.6 mb - 0.00 in0.0 mm 0.00 in0.0 mm
06:30 PM 83.0°F28.3°C 49.3°F9.6°C 31% 1.0 mph SE1.6 kmh SE 2.0 mph3.2 kmh 29.96 in1014.6 mb - 0.00 in0.0 mm 0.00 in0.0 mm
06:40 PM 82.4°F28.0°C 50.4°F10.2°C 33% Calm Calm 2.0 mph3.2 kmh 29.96 in1014.6 mb - 0.00 in0.0 mm 0.00 in0.0 mm
06:50 PM 80.9°F27.2°C 49.9°F9.9°C 34% Calm Calm -- 29.96 in1014.6 mb - 0.00 in0.0 mm 0.00 in0.0 mm
07:00 PM 79.7°F26.5°C 50.4°F10.2°C 36% Calm Calm -- 29.96 in1014.6 mb - 0.00 in0.0 mm 0.00 in0.0 mm
07:10 PM 79.0°F26.1°C 53.3°F11.8°C 41% Calm Calm -- 29.96 in1014.6 mb - 0.00 in0.0 mm 0.00 in0.0 mm
07:20 PM 78.3°F25.7°C 51.3°F10.7°C 39% Calm Calm 2.0 mph3.2 kmh 29.96 in1014.6 mb - 0.00 in0.0 mm 0.00 in0.0 mm
07:30 PM 71.1°F21.7°C 36.3°F2.4°C 28% Calm Calm -- 29.92 in1013.2 mb - 0.00 in0.0 mm 0.00 in0.0 mm
08:00 PM 68.3°F20.2°C 38.8°F3.8°C 34% Calm Calm -- 29.94 in1013.9 mb - 0.00 in0.0 mm 0.00 in0.0 mm
08:30 PM 65.8°F18.8°C 39.5°F4.2°C 38% Calm Calm -- 29.94 in1013.9 mb - 0.00 in0.0 mm 0.00 in0.0 mm
09:00 PM 64.3°F17.9°C 38.8°F3.8°C 39% 0.1 mph NE0.2 kmh NE -- 29.95 in1014.2 mb - 0.00 in0.0 mm 0.00 in0.0 mm
09:30 PM 63.2°F17.3°C 40.9°F4.9°C 44% 2.5 mph NE4.0 kmh NE 3.0 mph4.8 kmh 29.95 in1014.2 mb - 0.00 in0.0 mm 0.00 in0.0 mm
10:00 PM 62.1°F16.7°C 39.3°F4.1°C 43% Calm Calm -- 29.95 in1014.2 mb - 0.00 in0.0 mm 0.00 in0.0 mm
10:30 PM 60.7°F15.9°C 41.4°F5.2°C 49% Calm Calm -- 29.95 in1014.2 mb - 0.00 in0.0 mm 0.00 in0.0 mm
11:00 PM 59.5°F15.3°C 41.9°F5.5°C 52% Calm Calm -- 29.96 in1014.6 mb - 0.00 in0.0 mm 0.00 in0.0 mm
11:30 PM 62.7°F17.1°C 38.0°F3.3°C 40% 1.1 mph NE1.8 kmh NE 4.0 mph6.4 kmh 29.95 in1014.2 mb - 0.00 in0.0 mm 0.00 in0.0 mm